Thursday, October 30, 2014
12:59 UTC
  |  Log In   |  Register Free
Airport Search:

Comanche County-City Airport
(KMKN)

Comanche County-City Airport Diagram
No Airport Diagram Available

FAA data valid effective September 18, 2014 - November 13, 2014 (unless otherwise noted).

 
 
 
 
 
 
 
 
 
 
 
 
 
 

Current Aviation Weather for Comanche County-City Airport (KMKN)

The most recent METAR observation for KMKN was updated at: 1214
METAR Summary (Translated METAR)
KMKN
301155Z AUTO 16003KT 10SM BKN034 BKN043 OVC049 13/11 A3014 RMK AO2 T01290110 10145 20118
KBWD
301155Z AUTO 00000KT 10SM BKN037 OVC045 12/10 A3013 RMK AO2
(19.7 nm SW from KMKN)
KMNZ
301155Z AUTO 18009KT 10SM SCT012 BKN039 BKN060 15/11 A3014 RMK AO2 T01460105 10151 20134
(27.6 nm SE from KMKN)
TAF
No TAF information found within 50 nm of KMKN
  Airport Weather Conditions for KMKN

 Current Weather at MKN
55° F
Overcast
North winds at 0.0 mph
MKN NOAA Radar

Pressure: 30.14 in
Humidity: 89%
Wind: Calm
Dew Point: 51.4°F
Visibility: 10.00 mi


Airport Weather Forecast for KMKN

Translated METAR and TAF for KMKN
Translated METAR for KMKN (1254 UTC 30 October 2014)
found at http://aviationweather.gov/adds/metars/
 
METAR text: KMKN 301235Z AUTO 18004KT 10SM BKN034 BKN043 13/11 A3014 RMK AO2 T01310114
Conditions at: KMKN (COMANCHE , TX, US) observed 1235 UTC 30 October 2014
Temperature: 13.1°C (56°F)
Dewpoint: 11.4°C (53°F) [RH = 89%]
Pressure (altimeter): 30.14 inches Hg (1020.7 mb)
Winds: from the S (180 degrees) at 5 MPH (4 knots; 2.1 m/s)
Visibility: 10 or more miles (16+ km)
Ceiling: 3400 feet AGL
Clouds: broken clouds at 3400 feet AGL
broken clouds at 4300 feet AGL
Weather: automated observation with no human augmentation;
there may or may not be significant weather present at this time
Translated TAF for KMKN

There is no translated TAF available for this airport

Find All Airport Services Find A Hotel Find A Rental Car Find A Golf Course Find A Restaurant $100 Hamburger



FBO's on the Field
FBO Company Facility Photos Services Transportation Aviation Fuel Prices: Prices include tax
Catering Weather Repair Courtesy Rental Type 100LL JetA JetA+ MOGAS 8087
 
Comanche County/City Airport

This FBO has not yet been rated
FS:Avfuel
Last Updated: Oct-17
Login to update fuel prices
SS:
Contact Comanche County/City AirportMore FBO Information
 
Add another FBO Facility Photos Catering Weather Repair Courtesy Rental Type 100LL JetA JetA+ MOGAS 8087
Services Transportation Aviation Fuel Prices: Prices include tax


model-print
model-print
model-print
model-print